Elba, Idaho
Current Conditions -  °F | °C
As of 12:53 AM on Monday 24 Nov 2014 (Local Time) from KBYI Reporting Station
Overcast Overcast  
Wind Chill: -4°   Ceiling: 10000
Heat Index:   Visibility: 10mi
Dew Point: -4°   Wind: 13mph
Humidity: 67%   Direction: 260°W
Pressure: 30.15"   Gusts: 22mph
Location:  42.25°N, 113.56°W
Report Text: KBYI 240753Z AUTO 26011G19KT 10SM OVC100 01/M04 A3015 RMK AO2 SLP220 T00111044
Loading
Personal Weather Stations






























Interactive Weather Map New forecast layout! Learn more

10-Day Weather Forecast

Advertisements
Track Severe Weather on mobile